createdAt,value
2017-10-01T00:00:21.072Z,15.6
2017-10-01T00:01:20.637Z,15.5
2017-10-01T00:02:19.857Z,15.5
2017-10-01T00:03:19.402Z,15.5
2017-10-01T00:04:18.333Z,15.6
2017-10-01T00:05:17.768Z,15.6
2017-10-01T00:06:16.695Z,15.6
2017-10-01T00:07:15.896Z,15.6
2017-10-01T00:08:15.055Z,15.6
2017-10-01T00:09:14.361Z,15.6
2017-10-01T00:10:13.665Z,15.6
2017-10-01T00:11:12.852Z,15.6
2017-10-01T00:12:12.037Z,15.6
2017-10-01T00:13:11.092Z,15.6
2017-10-01T00:14:10.770Z,15.6
2017-10-01T00:15:09.958Z,15.6
2017-10-01T00:16:09.267Z,15.6
2017-10-01T00:17:08.073Z,15.6
2017-10-01T00:18:07.874Z,15.6
2017-10-01T00:19:06.561Z,15.6
2017-10-01T00:20:06.496Z,15.6
2017-10-01T00:20:36.477Z,15.6
2017-10-01T00:21:07.094Z,15.5
2017-10-01T00:21:37.085Z,15.5
2017-10-01T00:23:03.816Z,15.5
2017-10-01T00:23:34.305Z,15.5
2017-10-01T00:25:02.169Z,15.2
2017-10-01T00:26:01.602Z,15.2
2017-10-01T00:27:00.917Z,15.2
2017-10-01T00:28:00.358Z,15.1
2017-10-01T00:28:59.532Z,15
2017-10-01T00:29:58.719Z,15
2017-10-01T00:30:57.901Z,15
2017-10-01T00:31:57.080Z,14.8
2017-10-01T00:32:56.270Z,14.9
2017-10-01T00:33:55.571Z,14.8
2017-10-01T00:34:55.007Z,14.7
2017-10-01T00:36:53.203Z,14.7
2017-10-01T00:37:52.638Z,14.6
2017-10-01T00:38:51.824Z,14.6
2017-10-01T00:39:50.883Z,14.7
2017-10-01T00:40:50.444Z,14.7
2017-10-01T00:41:49.613Z,14.8
2017-10-01T00:42:48.794Z,14.8
2017-10-01T00:43:48.095Z,14.8
2017-10-01T00:44:47.280Z,14.8
2017-10-01T00:45:46.590Z,14.7
2017-10-01T00:46:45.641Z,14.7
2017-10-01T00:47:45.070Z,14.8
2017-10-01T00:48:43.996Z,14.7
2017-10-01T00:49:43.563Z,14.7
2017-10-01T00:50:42.877Z,14.7
2017-10-01T00:51:42.188Z,14.6
2017-10-01T00:52:41.627Z,14.6
2017-10-01T00:53:11.612Z,14.6
2017-10-01T00:53:41.870Z,14.5
2017-10-01T00:54:12.112Z,14.5
2017-10-01T00:55:39.097Z,14.5
2017-10-01T00:56:38.279Z,14.5
2017-10-01T00:57:37.459Z,14.4
2017-10-01T00:58:36.765Z,14.4
2017-10-01T00:59:36.070Z,14.4
2017-10-01T01:00:35.001Z,14.3
2017-10-01T01:01:34.690Z,14.3
2017-10-01T01:02:05.189Z,14.3
2017-10-01T01:02:36.086Z,14.3
2017-10-01T01:03:32.616Z,14.4
2017-10-01T01:04:32.178Z,14.3
2017-10-01T01:05:31.113Z,14.2
2017-10-01T01:06:30.927Z,14.2
2017-10-01T01:07:29.601Z,14.3
2017-10-01T01:08:29.169Z,14.3
2017-10-01T01:09:28.475Z,14.3
2017-10-01T01:10:27.528Z,14.3
2017-10-01T01:11:26.958Z,14.2
2017-10-01T01:12:26.267Z,14.2
2017-10-01T01:13:25.446Z,14.3
2017-10-01T01:15:23.766Z,14.2
2017-10-01T01:16:23.078Z,14.2
2017-10-01T01:17:22.386Z,14.1
2017-10-01T01:18:21.568Z,14.1
2017-10-01T01:19:20.755Z,14.1
2017-10-01T01:20:20.064Z,14.1
2017-10-01T01:21:19.506Z,14.1
2017-10-01T01:22:18.567Z,14.2
2017-10-01T01:23:17.500Z,14.2
2017-10-01T01:24:16.675Z,14.2
2017-10-01T01:25:15.736Z,14.2
2017-10-01T01:26:15.667Z,14.2
2017-10-01T01:27:14.971Z,14.2
2017-10-01T01:28:13.781Z,14.2
2017-10-01T01:29:13.212Z,14.2
2017-10-01T01:30:12.135Z,14.1
2017-10-01T01:31:11.566Z,14
2017-10-01T01:32:10.748Z,14
2017-10-01T01:33:09.800Z,14
2017-10-01T01:34:09.109Z,14.1
2017-10-01T01:35:08.040Z,14.1
2017-10-01T01:36:07.976Z,14.1
2017-10-01T01:37:07.282Z,14.1
2017-10-01T01:38:05.959Z,14.1
2017-10-01T01:39:05.263Z,14.1
2017-10-01T01:40:04.819Z,14.1
2017-10-01T01:41:04.143Z,14.1
2017-10-01T01:42:02.817Z,14
2017-10-01T01:43:02.124Z,14.1
2017-10-01T01:44:01.564Z,14.1
2017-10-01T01:45:00.622Z,14.1
2017-10-01T01:45:59.928Z,14
2017-10-01T01:46:58.861Z,14.1
2017-10-01T01:48:57.422Z,14.1
2017-10-01T01:49:56.977Z,14.1
2017-10-01T01:50:56.420Z,14.1
2017-10-01T01:51:55.597Z,14.1
2017-10-01T01:52:54.518Z,14.1
2017-10-01T01:53:53.822Z,14.2
2017-10-01T01:55:52.508Z,14.1
2017-10-01T01:56:51.438Z,14.1
2017-10-01T01:57:50.615Z,14.1
2017-10-01T01:58:49.797Z,14.1
2017-10-01T01:59:49.102Z,14.1
2017-10-01T02:00:48.159Z,14
2017-10-01T02:01:47.214Z,14.1
2017-10-01T02:02:47.139Z,14
2017-10-01T02:03:46.189Z,14
2017-10-01T02:04:45.128Z,14
2017-10-01T02:05:44.323Z,14.1
2017-10-01T02:06:43.870Z,14.1
2017-10-01T02:07:43.177Z,14
2017-10-01T02:08:42.486Z,14
2017-10-01T02:09:41.029Z,14.1
2017-10-01T02:10:40.851Z,14.1
2017-10-01T02:11:39.903Z,14
2017-10-01T02:12:38.960Z,14
2017-10-01T02:13:38.397Z,14
2017-10-01T02:14:37.327Z,14
2017-10-01T02:15:36.759Z,14
2017-10-01T02:16:35.947Z,14
2017-10-01T02:17:35.264Z,14
2017-10-01T02:18:34.693Z,14
2017-10-01T02:19:33.869Z,14
2017-10-01T02:20:32.799Z,14
2017-10-01T02:21:32.233Z,14.1
2017-10-01T02:22:31.284Z,14
2017-10-01T02:23:30.470Z,14
2017-10-01T02:24:29.780Z,14
2017-10-01T02:25:28.965Z,13.9
2017-10-01T02:26:28.268Z,14
2017-10-01T02:27:27.457Z,14
2017-10-01T02:28:26.761Z,14
2017-10-01T02:29:25.817Z,13.9
2017-10-01T02:29:56.192Z,13.9
2017-10-01T02:31:24.314Z,13.8
2017-10-01T02:32:23.496Z,13.9
2017-10-01T02:33:22.801Z,13.8
2017-10-01T02:34:21.998Z,13.9
2017-10-01T02:35:21.190Z,13.9
2017-10-01T02:36:20.366Z,13.9
2017-10-01T02:37:19.678Z,13.9
2017-10-01T02:38:18.854Z,13.8
2017-10-01T02:39:18.290Z,13.7
2017-10-01T02:40:17.216Z,13.8
2017-10-01T02:40:47.708Z,13.8
2017-10-01T02:41:18.080Z,13.8
2017-10-01T02:41:48.195Z,13.8
2017-10-01T02:42:18.824Z,13.8
2017-10-01T02:43:14.730Z,13.8
2017-10-01T02:44:14.287Z,13.7
2017-10-01T02:45:13.874Z,13.5
2017-10-01T02:46:12.548Z,13.5
2017-10-01T02:47:12.247Z,13.5
2017-10-01T02:48:11.061Z,13.5
2017-10-01T02:49:10.391Z,13.5
2017-10-01T02:50:09.700Z,13.3
2017-10-01T02:51:08.896Z,13.3
2017-10-01T02:52:07.583Z,13.3
2017-10-01T02:53:07.530Z,13.3
2017-10-01T02:54:06.217Z,13.3
2017-10-01T02:55:05.405Z,13.2
2017-10-01T02:56:04.591Z,13.2
2017-10-01T02:57:03.909Z,13.1
2017-10-01T02:58:03.210Z,13.1
2017-10-01T02:59:02.643Z,13.1
2017-10-01T03:00:01.196Z,13.1
2017-10-01T03:01:00.758Z,13.1
2017-10-01T03:02:00.192Z,13.1
2017-10-01T03:02:59.250Z,13.2
2017-10-01T03:03:58.306Z,13.2
2017-10-01T03:04:57.618Z,13.1
2017-10-01T03:05:56.672Z,13.1
2017-10-01T03:06:55.972Z,13.2
2017-10-01T03:07:55.146Z,13.2
2017-10-01T03:08:54.324Z,13.2
2017-10-01T03:09:53.635Z,13.2
2017-10-01T03:10:52.813Z,13.2
2017-10-01T03:11:51.997Z,13.1
2017-10-01T03:12:51.172Z,13.1
2017-10-01T03:13:50.347Z,13.1
2017-10-01T03:14:50.152Z,13.1
2017-10-01T03:15:48.951Z,13.1
2017-10-01T03:16:47.884Z,13.2
2017-10-01T03:17:47.436Z,13.2
2017-10-01T03:18:46.871Z,13.2
2017-10-01T03:19:45.660Z,13.2
2017-10-01T03:20:44.963Z,13.3
2017-10-01T03:21:44.019Z,13.3
2017-10-01T03:22:43.446Z,13.3
2017-10-01T03:23:14.079Z,13.3
2017-10-01T03:24:41.945Z,13.3
2017-10-01T03:25:41.382Z,13.3
2017-10-01T03:26:40.434Z,13.3
2017-10-01T03:27:39.621Z,13.3
2017-10-01T03:28:38.557Z,13.4
2017-10-01T03:29:37.731Z,13.3
2017-10-01T03:30:36.914Z,13.3
2017-10-01T03:31:36.091Z,13.3
2017-10-01T03:32:35.777Z,13.3
2017-10-01T03:33:34.591Z,13.1
2017-10-01T03:34:05.086Z,13.1
2017-10-01T03:34:35.572Z,13.1
2017-10-01T03:35:32.741Z,13.1
2017-10-01T03:38:30.951Z,13
2017-10-01T03:39:29.751Z,13
2017-10-01T03:40:29.058Z,13
2017-10-01T03:41:28.238Z,13
2017-10-01T03:42:27.671Z,13
2017-10-01T03:43:26.854Z,13
2017-10-01T03:44:26.036Z,13
2017-10-01T03:45:25.471Z,12.9
2017-10-01T03:46:24.652Z,12.8
2017-10-01T03:47:23.456Z,12.6
2017-10-01T03:48:23.011Z,12.6
2017-10-01T03:49:22.068Z,12.7
2017-10-01T03:50:21.375Z,12.8
2017-10-01T03:51:20.797Z,12.9
2017-10-01T03:52:19.857Z,12.8
2017-10-01T03:53:18.911Z,12.8
2017-10-01T03:54:18.476Z,12.8
2017-10-01T03:55:17.536Z,12.7
2017-10-01T03:56:16.217Z,12.8
2017-10-01T03:58:14.664Z,12.8
2017-10-01T03:59:13.969Z,12.8
2017-10-01T04:00:13.531Z,12.8
2017-10-01T04:01:12.708Z,12.8
2017-10-01T04:02:11.761Z,12.6
2017-10-01T04:03:11.064Z,12.6
2017-10-01T04:04:10.378Z,12.8
2017-10-01T04:05:09.313Z,12.8
2017-10-01T04:06:08.629Z,12.8
2017-10-01T04:07:07.562Z,12.8
2017-10-01T04:08:07.115Z,12.8
2017-10-01T04:09:06.294Z,12.7
2017-10-01T04:10:05.605Z,12.7
2017-10-01T04:11:04.288Z,12.6
2017-10-01T04:12:03.461Z,12.6
2017-10-01T04:13:03.285Z,12.6
2017-10-01T04:14:02.090Z,12.8
2017-10-01T04:15:01.141Z,12.8
2017-10-01T04:16:00.451Z,12.6
2017-10-01T04:16:59.376Z,12.6
2017-10-01T04:17:59.064Z,12.6
2017-10-01T04:18:58.371Z,12.6
2017-10-01T04:19:57.301Z,12.5
2017-10-01T04:20:56.724Z,12.6
2017-10-01T04:21:56.032Z,12.7
2017-10-01T04:22:55.082Z,12.8
2017-10-01T04:24:53.140Z,12.7
2017-10-01T04:25:52.824Z,12.8
2017-10-01T04:26:51.515Z,12.8
2017-10-01T04:27:50.825Z,12.8
2017-10-01T04:28:50.009Z,12.8
2017-10-01T04:29:49.685Z,12.8
2017-10-01T04:30:48.869Z,12.6
2017-10-01T04:32:46.809Z,12.5
2017-10-01T04:33:46.130Z,12.5
2017-10-01T04:34:45.306Z,12.5
2017-10-01T04:35:44.483Z,12.3
2017-10-01T04:37:43.176Z,12.5
2017-10-01T04:38:41.974Z,12.6
2017-10-01T04:39:41.296Z,12.6
2017-10-01T04:40:40.609Z,12.6
2017-10-01T04:41:39.919Z,12.5
2017-10-01T04:42:39.101Z,12.5
2017-10-01T04:43:38.281Z,12.5
2017-10-01T04:44:37.214Z,12.4
2017-10-01T04:45:36.516Z,12.3
2017-10-01T04:46:35.827Z,12.3
2017-10-01T04:47:35.133Z,12.3
2017-10-01T04:48:34.308Z,12.2
2017-10-01T04:49:33.483Z,12.1
2017-10-01T04:50:32.418Z,12.1
2017-10-01T04:51:31.596Z,12.2
2017-10-01T04:52:30.907Z,12.2
2017-10-01T04:53:30.356Z,12.4
2017-10-01T04:54:29.544Z,12.1
2017-10-01T04:55:28.350Z,12.1
2017-10-01T04:56:27.533Z,12.3
2017-10-01T04:57:26.587Z,12.2
2017-10-01T04:58:26.012Z,12.3
2017-10-01T04:59:25.442Z,12.3
2017-10-01T05:00:24.492Z,12.3
2017-10-01T05:01:23.921Z,12.2
2017-10-01T05:02:23.398Z,12.3
2017-10-01T05:03:22.320Z,12.2
2017-10-01T05:04:20.998Z,12.3
2017-10-01T05:05:20.552Z,12.3
2017-10-01T05:06:19.860Z,12.3
2017-10-01T05:07:19.285Z,12.3
2017-10-01T05:08:17.961Z,12.3
2017-10-01T05:09:17.022Z,12.3
2017-10-01T05:10:16.857Z,12.3
2017-10-01T05:11:15.784Z,12.3
2017-10-01T05:13:13.916Z,12.2
2017-10-01T05:14:12.969Z,12.1
2017-10-01T05:15:12.653Z,12.3
2017-10-01T05:16:11.963Z,12.3
2017-10-01T05:17:10.772Z,12.3
2017-10-01T05:18:10.204Z,12.3
2017-10-01T05:19:09.260Z,12.3
2017-10-01T05:20:08.330Z,12.5
2017-10-01T05:21:07.895Z,12.5
2017-10-01T05:22:06.692Z,12.5
2017-10-01T05:23:06.139Z,12.3
2017-10-01T05:24:05.442Z,12.4
2017-10-01T05:25:04.369Z,12.4
2017-10-01T05:26:03.427Z,12.3
2017-10-01T05:27:02.735Z,12.3
2017-10-01T05:28:01.806Z,12.3
2017-10-01T05:29:00.865Z,12.3
2017-10-01T05:30:00.801Z,12.2
2017-10-01T05:30:59.719Z,12.2
2017-10-01T05:31:58.530Z,12.1
2017-10-01T05:32:57.837Z,12.1
2017-10-01T05:33:57.019Z,12
2017-10-01T05:34:56.073Z,12
2017-10-01T05:35:55.757Z,11.9
2017-10-01T05:36:54.436Z,11.9
2017-10-01T05:37:53.993Z,11.8
2017-10-01T05:38:53.180Z,11.9
2017-10-01T05:39:51.996Z,11.8
2017-10-01T05:40:51.427Z,11.8
2017-10-01T05:41:50.735Z,11.8
2017-10-01T05:42:49.789Z,11.8
2017-10-01T05:43:49.096Z,11.9
2017-10-01T05:44:48.400Z,11.8
2017-10-01T05:45:47.201Z,11.8
2017-10-01T05:46:46.253Z,11.9
2017-10-01T05:47:45.685Z,11.8
2017-10-01T05:48:44.875Z,11.8
2017-10-01T05:49:44.431Z,11.7
2017-10-01T05:50:43.724Z,11.8
2017-10-01T05:51:42.535Z,11.8
2017-10-01T05:52:41.589Z,11.8
2017-10-01T05:53:40.766Z,11.9
2017-10-01T05:54:39.946Z,11.8
2017-10-01T05:55:39.117Z,11.8
2017-10-01T05:56:38.302Z,11.8
2017-10-01T05:57:37.608Z,11.8
2017-10-01T05:58:36.919Z,11.9
2017-10-01T06:00:35.117Z,12
2017-10-01T06:01:34.423Z,12
2017-10-01T06:02:33.851Z,12
2017-10-01T06:03:32.534Z,12
2017-10-01T06:04:32.087Z,12.1
2017-10-01T06:05:31.260Z,12.1
2017-10-01T06:06:30.434Z,12.1
2017-10-01T06:07:29.624Z,12.1
2017-10-01T06:08:28.800Z,12.1
2017-10-01T06:09:28.109Z,12.1
2017-10-01T06:10:26.916Z,12.1
2017-10-01T06:11:26.341Z,12.1
2017-10-01T06:12:25.775Z,12.1
2017-10-01T06:13:24.451Z,12.2
2017-10-01T06:14:23.758Z,12.2
2017-10-01T06:15:22.942Z,12.1
2017-10-01T06:16:21.994Z,12.1
2017-10-01T06:17:21.435Z,12
2017-10-01T06:18:20.746Z,12
2017-10-01T06:19:20.052Z,12
2017-10-01T06:20:18.982Z,11.9
2017-10-01T06:21:18.418Z,11.9
2017-10-01T06:22:17.223Z,12
2017-10-01T06:23:16.395Z,12
2017-10-01T06:24:15.459Z,12
2017-10-01T06:25:14.635Z,12
2017-10-01T06:26:13.939Z,12
2017-10-01T06:27:13.376Z,12
2017-10-01T06:28:12.431Z,12.1
2017-10-01T06:29:11.616Z,12.1
2017-10-01T06:30:11.050Z,12.2
2017-10-01T06:30:41.317Z,12.2
2017-10-01T06:31:11.669Z,12.2
2017-10-01T06:31:42.170Z,12.2
2017-10-01T06:32:12.792Z,12.1
2017-10-01T06:32:43.274Z,12.1
2017-10-01T06:34:08.089Z,12
2017-10-01T06:35:07.021Z,12.1
2017-10-01T06:36:06.072Z,12
2017-10-01T06:37:04.869Z,12
2017-10-01T06:38:04.055Z,12
2017-10-01T06:39:03.609Z,12
2017-10-01T06:40:02.290Z,12
2017-10-01T06:41:01.595Z,12
2017-10-01T06:42:01.285Z,12.1
2017-10-01T06:42:59.840Z,12
2017-10-01T06:43:59.394Z,12.1
2017-10-01T06:44:58.834Z,12.1
2017-10-01T06:45:57.781Z,12.1
2017-10-01T06:46:57.086Z,12
2017-10-01T06:47:56.021Z,12.1
2017-10-01T06:48:55.325Z,12.1
2017-10-01T06:49:54.631Z,12.1
2017-10-01T06:50:53.804Z,12
2017-10-01T06:51:53.108Z,12
2017-10-01T06:52:52.538Z,12
2017-10-01T06:53:51.351Z,12
2017-10-01T06:54:50.851Z,12
2017-10-01T06:55:49.522Z,11.8
2017-10-01T06:56:48.833Z,11.8
2017-10-01T06:57:47.882Z,11.9
2017-10-01T06:58:47.309Z,12
2017-10-01T06:59:45.986Z,11.9
2017-10-01T07:00:45.420Z,12
2017-10-01T07:01:44.351Z,12.1
2017-10-01T07:04:42.563Z,11.8
2017-10-01T07:05:41.363Z,11.9
2017-10-01T07:06:40.418Z,11.9
2017-10-01T07:07:39.986Z,12
2017-10-01T07:08:39.418Z,12
2017-10-01T07:09:38.219Z,12
2017-10-01T07:10:37.527Z,12
2017-10-01T07:11:08.137Z,12
2017-10-01T07:11:38.881Z,12
2017-10-01T07:12:35.793Z,12.1
2017-10-01T07:13:34.783Z,12.1
2017-10-01T07:14:34.221Z,12.1
2017-10-01T07:15:33.532Z,12.1
2017-10-01T07:16:32.717Z,12.1
2017-10-01T07:17:32.022Z,12.1
2017-10-01T07:19:30.212Z,12.1
2017-10-01T07:20:29.142Z,12
2017-10-01T07:21:28.700Z,11.9
2017-10-01T07:22:27.374Z,11.9
2017-10-01T07:23:26.805Z,12
2017-10-01T07:24:25.986Z,12
2017-10-01T07:25:25.542Z,12
2017-10-01T07:26:24.224Z,11.9
2017-10-01T07:27:23.535Z,11.9
2017-10-01T07:28:22.717Z,12
2017-10-01T07:29:22.019Z,12
2017-10-01T07:30:21.454Z,12
2017-10-01T07:31:20.258Z,11.8
2017-10-01T07:32:19.447Z,11.8
2017-10-01T07:34:18.018Z,12
2017-10-01T07:35:16.956Z,12
2017-10-01T07:36:16.131Z,12
2017-10-01T07:37:15.448Z,12
2017-10-01T07:38:14.885Z,12
2017-10-01T07:39:13.562Z,12
2017-10-01T07:40:13.119Z,12
2017-10-01T07:41:12.582Z,12
2017-10-01T07:42:11.379Z,12
2017-10-01T07:43:10.684Z,12
2017-10-01T07:44:09.750Z,12
2017-10-01T07:45:08.934Z,12
2017-10-01T07:46:08.114Z,12
2017-10-01T07:47:07.442Z,11.9
2017-10-01T07:48:06.630Z,11.8
2017-10-01T07:49:05.818Z,11.9
2017-10-01T07:50:04.874Z,11.9
2017-10-01T07:51:03.934Z,12
2017-10-01T07:52:03.114Z,12
2017-10-01T07:53:02.420Z,12
2017-10-01T07:54:01.716Z,12.1
2017-10-01T07:55:00.900Z,12
2017-10-01T07:55:59.710Z,12
2017-10-01T07:56:59.010Z,12
2017-10-01T07:57:58.441Z,12.1
2017-10-01T07:58:57.121Z,12.1
2017-10-01T07:59:56.675Z,12
2017-10-01T08:00:55.976Z,11.8
2017-10-01T08:01:55.408Z,11.9
2017-10-01T08:02:53.957Z,11.8
2017-10-01T08:03:53.143Z,11.9
2017-10-01T08:04:52.827Z,12
2017-10-01T08:05:51.497Z,12
2017-10-01T08:06:50.682Z,12
2017-10-01T08:07:21.172Z,12
2017-10-01T08:08:49.787Z,12
2017-10-01T08:09:48.589Z,12.1
2017-10-01T08:10:48.029Z,12.1
2017-10-01T08:11:46.591Z,12.1
2017-10-01T08:12:46.145Z,12.1
2017-10-01T08:13:45.329Z,12.1
2017-10-01T08:14:44.248Z,12
2017-10-01T08:15:43.308Z,12
2017-10-01T08:16:42.869Z,12
2017-10-01T08:17:41.925Z,12.1
2017-10-01T08:18:41.106Z,12
2017-10-01T08:19:40.184Z,12.1
2017-10-01T08:20:39.241Z,12.1
2017-10-01T08:21:38.673Z,12.1
2017-10-01T08:22:38.103Z,12.1
2017-10-01T08:23:36.784Z,12.1
2017-10-01T08:24:35.842Z,12.1
2017-10-01T08:26:34.538Z,12.1
2017-10-01T08:27:33.603Z,12.1
2017-10-01T08:28:32.665Z,12.1
2017-10-01T08:29:32.349Z,12.2
2017-10-01T08:30:31.277Z,12.1
2017-10-01T08:31:30.833Z,12.1
2017-10-01T08:32:29.382Z,12.1
2017-10-01T08:33:28.565Z,12
2017-10-01T08:34:27.996Z,12
2017-10-01T08:35:27.558Z,11.9
2017-10-01T08:36:26.485Z,12
2017-10-01T08:37:25.664Z,12.1
2017-10-01T08:38:25.105Z,12.1
2017-10-01T08:40:23.294Z,12
2017-10-01T08:41:22.728Z,12
2017-10-01T08:42:21.280Z,12
2017-10-01T08:43:20.838Z,12
2017-10-01T08:44:20.019Z,12.1
2017-10-01T08:45:19.199Z,12.1
2017-10-01T08:46:18.378Z,12.1
2017-10-01T08:47:17.432Z,12.2
2017-10-01T08:48:16.490Z,12.2
2017-10-01T08:49:15.793Z,12.1
2017-10-01T08:50:15.232Z,12.1
2017-10-01T08:51:14.154Z,12.2
2017-10-01T08:52:13.465Z,12.1
2017-10-01T08:53:12.776Z,12.1
2017-10-01T08:54:11.586Z,12.1
2017-10-01T08:55:11.020Z,12.2
2017-10-01T08:56:09.948Z,12.2
2017-10-01T08:57:09.512Z,12.3
2017-10-01T08:58:08.312Z,12.3
2017-10-01T08:59:07.486Z,12.2
2017-10-01T09:00:06.924Z,12.2
2017-10-01T09:02:05.128Z,12.3
2017-10-01T09:03:04.809Z,12.3
2017-10-01T09:04:03.616Z,12.2
2017-10-01T09:05:02.805Z,12.1
2017-10-01T09:06:01.985Z,12.1
2017-10-01T09:07:01.043Z,12.1
2017-10-01T09:08:00.095Z,12.1
2017-10-01T09:09:00.114Z,12.1
2017-10-01T09:09:58.918Z,12.2
2017-10-01T09:11:57.115Z,12.2
2017-10-01T09:12:56.425Z,12.3
2017-10-01T09:13:55.738Z,12.3
2017-10-01T09:14:54.660Z,12.2
2017-10-01T09:15:54.118Z,12.1
2017-10-01T09:16:52.803Z,12
2017-10-01T09:18:51.496Z,11.9
2017-10-01T09:19:50.802Z,11.8
2017-10-01T09:21:48.992Z,12.1
2017-10-01T09:22:48.048Z,12.2
2017-10-01T09:23:47.111Z,12.1
2017-10-01T09:24:46.279Z,12.1
2017-10-01T09:25:45.464Z,12.1
2017-10-01T09:26:44.900Z,12.1
2017-10-01T09:27:44.338Z,12.1
2017-10-01T09:28:43.013Z,12.1
2017-10-01T09:29:42.066Z,12.2
2017-10-01T09:30:41.507Z,12.2
2017-10-01T09:31:40.818Z,12.1
2017-10-01T09:32:39.997Z,12.2
2017-10-01T09:33:38.672Z,12.1
2017-10-01T09:35:37.244Z,12.2
2017-10-01T09:36:37.053Z,12.2
2017-10-01T09:37:35.856Z,12.1
2017-10-01T09:38:34.909Z,12.2
2017-10-01T09:39:33.965Z,12.1
2017-10-01T09:40:33.652Z,12.3
2017-10-01T09:41:32.582Z,12.4
2017-10-01T09:42:32.019Z,12.3
2017-10-01T09:43:31.323Z,12.3
2017-10-01T09:44:30.132Z,12.3
2017-10-01T09:45:29.310Z,12.4
2017-10-01T09:46:28.492Z,12.3
2017-10-01T09:47:27.666Z,12.3
2017-10-01T09:48:26.852Z,12.2
2017-10-01T09:49:26.036Z,12.2
2017-10-01T09:51:24.095Z,12.1
2017-10-01T09:52:23.906Z,12.3
2017-10-01T09:53:22.699Z,12.3
2017-10-01T09:54:22.011Z,12.3
2017-10-01T09:55:21.062Z,12.3
2017-10-01T09:56:20.492Z,12.3
2017-10-01T09:57:19.552Z,12.3
2017-10-01T09:58:18.483Z,12.3
2017-10-01T09:59:18.164Z,12.3
2017-10-01T10:00:17.215Z,12.2
2017-10-01T10:01:16.521Z,12
2017-10-01T10:03:14.708Z,12.3
2017-10-01T10:04:13.765Z,12.4
2017-10-01T10:05:13.328Z,12.4
2017-10-01T10:06:12.634Z,12.4
2017-10-01T10:07:11.693Z,12.3
2017-10-01T10:08:10.623Z,12.2
2017-10-01T10:09:09.810Z,12.3
2017-10-01T10:10:09.251Z,12.3
2017-10-01T10:11:08.680Z,12.3
2017-10-01T10:12:07.236Z,12.3
2017-10-01T10:13:06.427Z,12.3
2017-10-01T10:14:06.001Z,12.2
2017-10-01T10:15:05.430Z,12.3
2017-10-01T10:16:04.116Z,12.3
2017-10-01T10:17:03.542Z,12.3
2017-10-01T10:18:02.475Z,12.4
2017-10-01T10:19:01.778Z,12.4
2017-10-01T10:20:00.864Z,12.4
2017-10-01T10:21:00.048Z,12.5
2017-10-01T10:21:59.245Z,12.4
2017-10-01T10:22:58.177Z,12.3
2017-10-01T10:23:57.733Z,12.3
2017-10-01T10:24:57.041Z,12.4
2017-10-01T10:25:56.218Z,12.5
2017-10-01T10:26:55.653Z,12.5
2017-10-01T10:27:54.840Z,12.5
2017-10-01T10:28:53.769Z,12.5
2017-10-01T10:29:53.350Z,12.5
2017-10-01T10:30:52.146Z,12.5
2017-10-01T10:31:51.210Z,12.5
2017-10-01T10:32:50.267Z,12.5
2017-10-01T10:35:48.354Z,12.3
2017-10-01T10:37:46.419Z,12.4
2017-10-01T10:38:45.603Z,12.5
2017-10-01T10:39:16.216Z,12.5
2017-10-01T10:40:44.080Z,12.5
2017-10-01T10:41:43.258Z,12.5
2017-10-01T10:42:42.441Z,12.5
2017-10-01T10:43:41.625Z,12.5
2017-10-01T10:44:40.680Z,12.5
2017-10-01T10:45:40.112Z,12.5
2017-10-01T10:46:39.546Z,12.5
2017-10-01T10:47:38.472Z,12.5
2017-10-01T10:48:37.656Z,12.6
2017-10-01T10:49:37.215Z,12.6
2017-10-01T10:50:35.769Z,12.6
2017-10-01T10:51:34.950Z,12.6
2017-10-01T10:52:34.505Z,12.6
2017-10-01T10:53:33.687Z,12.6
2017-10-01T10:54:32.743Z,12.6
2017-10-01T10:55:32.184Z,12.7
2017-10-01T10:56:31.365Z,12.8
2017-10-01T10:57:30.686Z,12.8
2017-10-01T10:58:29.505Z,12.8
2017-10-01T10:59:28.930Z,12.8
2017-10-01T11:00:27.866Z,12.8
2017-10-01T11:01:27.174Z,12.6
2017-10-01T11:02:26.358Z,12.7
2017-10-01T11:03:25.411Z,12.8
2017-10-01T11:04:24.589Z,12.8
2017-10-01T11:05:23.894Z,12.8
2017-10-01T11:06:23.073Z,12.8
2017-10-01T11:07:22.270Z,12.8
2017-10-01T11:08:21.745Z,12.8
2017-10-01T11:10:19.566Z,12.9
2017-10-01T11:11:19.384Z,13
2017-10-01T11:12:18.307Z,13
2017-10-01T11:13:17.614Z,13
2017-10-01T11:14:17.048Z,13
2017-10-01T11:15:15.859Z,13
2017-10-01T11:16:15.038Z,13
2017-10-01T11:17:14.464Z,13
2017-10-01T11:18:13.902Z,13
2017-10-01T11:19:12.842Z,13
2017-10-01T11:20:12.399Z,13
2017-10-01T11:21:10.952Z,13.1
2017-10-01T11:22:10.387Z,13.1
2017-10-01T11:23:09.697Z,13
2017-10-01T11:24:09.020Z,13
2017-10-01T11:25:08.321Z,13
2017-10-01T11:26:07.124Z,13.1
2017-10-01T11:27:06.055Z,13.1
2017-10-01T11:28:05.614Z,13.1
2017-10-01T11:29:04.674Z,13.1
2017-10-01T11:30:03.866Z,13
2017-10-01T11:31:02.924Z,13
2017-10-01T11:32:02.738Z,13
2017-10-01T11:33:01.689Z,12.7
2017-10-01T11:35:00.014Z,13
2017-10-01T11:35:59.573Z,13.1
2017-10-01T11:37:57.633Z,13.2
2017-10-01T11:38:56.948Z,13.2
2017-10-01T11:39:56.123Z,13.2
2017-10-01T11:40:55.308Z,13.2
2017-10-01T11:41:54.359Z,13.1
2017-10-01T11:42:53.790Z,13.1
2017-10-01T11:43:53.217Z,13.1
2017-10-01T11:44:51.897Z,13.1
2017-10-01T11:45:51.204Z,13.1
2017-10-01T11:46:50.518Z,13.1
2017-10-01T11:47:49.820Z,13.1
2017-10-01T11:48:49.130Z,13.1
2017-10-01T11:49:48.059Z,13.1
2017-10-01T11:50:47.229Z,13.1
2017-10-01T11:51:46.529Z,13.1
2017-10-01T11:52:45.609Z,13.1
2017-10-01T11:53:45.058Z,13.2
2017-10-01T11:54:44.362Z,13.3
2017-10-01T11:55:43.299Z,13.3
2017-10-01T11:56:42.728Z,13.3
2017-10-01T11:57:41.906Z,13.3
2017-10-01T11:58:41.216Z,13.2
2017-10-01T11:59:40.271Z,13.1
2017-10-01T12:00:39.587Z,13.2
2017-10-01T12:01:38.773Z,13.3
2017-10-01T12:02:38.329Z,13.3
2017-10-01T12:03:37.251Z,13.2
2017-10-01T12:04:36.556Z,13.1
2017-10-01T12:05:35.607Z,13.1
2017-10-01T12:06:34.789Z,13.2
2017-10-01T12:07:34.091Z,13.3
2017-10-01T12:08:33.642Z,13.2
2017-10-01T12:09:32.316Z,13.1
2017-10-01T12:10:31.764Z,13.1
2017-10-01T12:11:31.201Z,13.2
2017-10-01T12:12:30.516Z,13.3
2017-10-01T12:13:29.318Z,13.3
2017-10-01T12:14:28.756Z,13.3
2017-10-01T12:14:58.869Z,13.3
2017-10-01T12:15:29.487Z,13.3
2017-10-01T12:15:59.738Z,13.3
2017-10-01T12:17:25.968Z,13.4
2017-10-01T12:18:25.781Z,13.3
2017-10-01T12:19:24.581Z,13.3
2017-10-01T12:20:23.644Z,13.4
2017-10-01T12:21:22.962Z,13.4
2017-10-01T12:22:21.887Z,13.3
2017-10-01T12:23:21.573Z,13.4
2017-10-01T12:24:20.753Z,13.5
2017-10-01T12:25:20.188Z,13.5
2017-10-01T12:26:19.116Z,13.5
2017-10-01T12:27:18.183Z,13.6
2017-10-01T12:28:17.869Z,13.7
2017-10-01T12:29:16.795Z,13.7
2017-10-01T12:30:15.852Z,13.7
2017-10-01T12:31:15.158Z,13.7
2017-10-01T12:32:14.351Z,13.7
2017-10-01T12:33:13.911Z,13.7
2017-10-01T12:34:13.345Z,13.7
2017-10-01T12:35:12.400Z,13.7
2017-10-01T12:36:11.580Z,13.8
2017-10-01T12:37:10.895Z,13.8
2017-10-01T12:38:10.204Z,13.8
2017-10-01T12:39:09.012Z,13.8
2017-10-01T12:40:08.322Z,13.9
2017-10-01T12:41:07.522Z,14.1
2017-10-01T12:42:06.706Z,14.3
2017-10-01T12:43:05.889Z,14.4
2017-10-01T12:44:05.198Z,14.5
2017-10-01T12:45:04.750Z,14.6
2017-10-01T12:46:03.558Z,14.6
2017-10-01T12:47:02.865Z,14.6
2017-10-01T12:48:02.301Z,14.6
2017-10-01T12:49:01.607Z,14.6
2017-10-01T12:50:59.924Z,14.6
2017-10-01T12:51:59.102Z,14.5
2017-10-01T12:52:58.534Z,14.5
2017-10-01T12:53:57.215Z,14.6
2017-10-01T12:54:56.389Z,14.6
2017-10-01T12:55:56.073Z,14.6
2017-10-01T12:56:55.126Z,14.6
2017-10-01T12:57:54.587Z,14.6
2017-10-01T12:58:53.641Z,14.6
2017-10-01T12:59:24.509Z,14.6
2017-10-01T12:59:54.622Z,14.6
2017-10-01T13:00:52.288Z,14.6
2017-10-01T13:01:51.091Z,14.6
2017-10-01T13:02:50.770Z,14.6
2017-10-01T13:03:49.950Z,14.5
2017-10-01T13:05:47.889Z,14.6
2017-10-01T13:06:47.969Z,14.6
2017-10-01T13:07:46.519Z,14.6
2017-10-01T13:08:46.337Z,14.6
2017-10-01T13:09:45.647Z,14.5
2017-10-01T13:10:44.460Z,14.5
2017-10-01T13:11:43.895Z,14.5
2017-10-01T13:12:42.820Z,14.5
2017-10-01T13:13:42.376Z,14.6
2017-10-01T13:14:41.561Z,14.6
2017-10-01T13:15:40.992Z,14.7
2017-10-01T13:16:39.797Z,14.7
2017-10-01T13:17:38.973Z,14.7
2017-10-01T13:18:38.546Z,14.7
2017-10-01T13:19:37.730Z,14.7
2017-10-01T13:20:36.911Z,14.7
2017-10-01T13:21:36.222Z,14.7
2017-10-01T13:22:35.396Z,14.7
2017-10-01T13:23:34.579Z,14.7
2017-10-01T13:24:33.512Z,14.7
2017-10-01T13:25:32.948Z,14.7
2017-10-01T13:26:32.385Z,14.7
2017-10-01T13:27:31.686Z,14.6
2017-10-01T13:28:31.000Z,14.6
2017-10-01T13:29:29.924Z,14.6
2017-10-01T13:30:28.984Z,14.6
2017-10-01T13:31:28.674Z,14.5
2017-10-01T13:32:27.357Z,14.5
2017-10-01T13:33:27.163Z,14.5
2017-10-01T13:34:26.227Z,14.5
2017-10-01T13:35:25.662Z,14.6
2017-10-01T13:36:24.843Z,14.6
2017-10-01T13:37:23.520Z,14.6
2017-10-01T13:38:23.207Z,14.6